createdAt,value
2023-04-08T00:02:21.400Z,20.97
2023-04-08T00:04:52.338Z,20.50
2023-04-08T00:07:23.354Z,17.57
2023-04-08T00:09:54.992Z,17.40
2023-04-08T00:12:22.837Z,18.00
2023-04-08T00:14:56.397Z,14.20
2023-04-08T00:17:24.353Z,14.73
2023-04-08T00:19:52.896Z,15.17
2023-04-08T00:22:21.292Z,15.73
2023-04-08T00:24:50.429Z,17.10
2023-04-08T00:27:20.353Z,18.60
2023-04-08T00:29:48.177Z,16.70
2023-04-08T00:32:17.590Z,15.13
2023-04-08T00:34:46.670Z,15.67
2023-04-08T00:37:15.587Z,17.23
2023-04-08T00:39:43.872Z,16.03
2023-04-08T00:42:23.100Z,16.13
2023-04-08T00:44:53.938Z,20.20
2023-04-08T00:47:23.848Z,20.03
2023-04-08T00:49:56.425Z,20.30
2023-04-08T00:52:29.145Z,14.77
2023-04-08T00:54:57.384Z,17.30
2023-04-08T00:57:25.407Z,18.77
2023-04-08T00:59:53.331Z,15.80
2023-04-08T01:02:33.651Z,15.50
2023-04-08T01:05:12.226Z,19.07
2023-04-08T01:07:48.096Z,16.30
2023-04-08T01:10:22.205Z,17.53
2023-04-08T01:12:55.683Z,16.23
2023-04-08T01:15:26.540Z,17.83
2023-04-08T01:17:57.720Z,18.43
2023-04-08T01:20:27.048Z,20.77
2023-04-08T01:23:10.319Z,15.10
2023-04-08T01:25:39.250Z,19.03
2023-04-08T01:28:12.400Z,21.37
2023-04-08T01:30:43.321Z,21.47
2023-04-08T01:33:16.910Z,16.47
2023-04-08T01:35:51.682Z,24.93
2023-04-08T01:38:25.394Z,19.90
2023-04-08T01:40:56.360Z,20.60
2023-04-08T01:43:26.274Z,23.97
2023-04-08T01:45:58.373Z,24.30
2023-04-08T01:48:26.935Z,21.50
2023-04-08T01:50:56.236Z,20.73
2023-04-08T01:53:29.047Z,18.23
2023-04-08T01:55:59.798Z,18.97
2023-04-08T01:58:34.603Z,18.77
2023-04-08T02:01:03.033Z,16.30
2023-04-08T02:03:34.598Z,17.70
2023-04-08T02:06:03.701Z,16.60
2023-04-08T02:08:33.336Z,20.03
2023-04-08T02:11:01.654Z,20.07
2023-04-08T02:13:34.663Z,17.43
2023-04-08T02:16:21.586Z,22.53
2023-04-08T02:18:57.965Z,17.57
2023-04-08T02:21:33.320Z,22.03
2023-04-08T02:24:04.606Z,18.73
2023-04-08T02:26:37.086Z,16.40
2023-04-08T02:29:06.857Z,19.90
2023-04-08T02:31:56.157Z,25.60
2023-04-08T02:34:28.549Z,19.07
2023-04-08T02:37:02.403Z,16.93
2023-04-08T02:39:45.297Z,19.63
2023-04-08T02:42:13.453Z,18.33
2023-04-08T02:44:48.864Z,18.17
2023-04-08T02:47:16.895Z,16.70
2023-04-08T02:49:44.694Z,19.70
2023-04-08T02:52:12.724Z,19.63
2023-04-08T02:54:42.219Z,13.43
2023-04-08T02:57:10.181Z,20.40
2023-04-08T02:59:39.148Z,15.30
2023-04-08T03:02:10.226Z,18.23
2023-04-08T03:04:42.452Z,19.67
2023-04-08T03:07:13.656Z,17.10
2023-04-08T03:09:46.414Z,15.40
2023-04-08T03:12:14.432Z,15.53
2023-04-08T03:14:42.568Z,14.83
2023-04-08T03:17:16.682Z,15.30
2023-04-08T03:19:44.875Z,15.30
2023-04-08T03:22:13.470Z,12.33
2023-04-08T03:24:43.271Z,15.83
2023-04-08T03:27:12.486Z,16.63
2023-04-08T03:29:40.979Z,14.03
2023-04-08T03:32:13.471Z,17.10
2023-04-08T03:34:41.568Z,15.10
2023-04-08T03:37:10.571Z,18.17
2023-04-08T03:39:39.183Z,16.27
2023-04-08T03:42:09.976Z,17.33
2023-04-08T03:44:39.903Z,20.03
2023-04-08T03:47:07.979Z,18.10
2023-04-08T03:49:39.728Z,18.10
2023-04-08T03:52:10.406Z,12.13
2023-04-08T03:54:40.773Z,18.00
2023-04-08T03:57:14.477Z,18.83
2023-04-08T03:59:47.589Z,14.47
2023-04-08T04:02:19.521Z,26.07
2023-04-08T04:04:52.433Z,19.53
2023-04-08T04:07:24.420Z,18.10
2023-04-08T04:09:54.193Z,21.97
2023-04-08T04:12:21.962Z,22.93
2023-04-08T04:14:52.236Z,25.40
2023-04-08T04:17:22.171Z,22.23
2023-04-08T04:19:51.383Z,17.10
2023-04-08T04:22:19.821Z,19.93
2023-04-08T04:24:49.044Z,22.00
2023-04-08T04:27:20.310Z,21.60
2023-04-08T04:29:48.184Z,22.53
2023-04-08T04:32:16.301Z,21.63
2023-04-08T04:34:46.848Z,26.80
2023-04-08T04:37:18.925Z,20.30
2023-04-08T04:39:51.015Z,18.83
2023-04-08T04:42:18.963Z,22.77
2023-04-08T04:44:47.751Z,21.07
2023-04-08T04:47:16.696Z,25.80
2023-04-08T04:49:47.624Z,23.40
2023-04-08T04:52:17.121Z,24.20
2023-04-08T04:54:48.036Z,31.27
2023-04-08T04:57:19.013Z,20.33
2023-04-08T04:59:47.206Z,21.13
2023-04-08T05:02:18.134Z,19.27
2023-04-08T05:04:46.151Z,16.90
2023-04-08T05:07:18.106Z,24.00
2023-04-08T05:09:46.767Z,21.97
2023-04-08T05:12:14.599Z,21.37
2023-04-08T05:14:46.314Z,17.57
2023-04-08T05:17:14.374Z,19.93
2023-04-08T05:19:43.875Z,17.30
2023-04-08T05:22:11.679Z,19.57
2023-04-08T05:24:40.803Z,24.10
2023-04-08T05:27:16.796Z,22.90
2023-04-08T05:29:47.799Z,20.90
2023-04-08T05:32:18.460Z,21.63
2023-04-08T05:34:49.340Z,23.03
2023-04-08T05:37:17.082Z,20.77
2023-04-08T05:39:46.279Z,20.23
2023-04-08T05:42:19.872Z,19.43
2023-04-08T05:44:49.101Z,20.53
2023-04-08T05:47:16.899Z,22.30
2023-04-08T05:49:44.981Z,19.40
2023-04-08T05:52:13.585Z,23.33
2023-04-08T05:54:48.734Z,19.13
2023-04-08T05:57:18.360Z,21.20
2023-04-08T05:59:49.251Z,17.73
2023-04-08T06:02:17.288Z,17.40
2023-04-08T06:04:47.282Z,16.13
2023-04-08T06:07:19.559Z,19.50
2023-04-08T06:09:48.795Z,19.10
2023-04-08T06:12:16.636Z,20.13
2023-04-08T06:14:44.510Z,18.20
2023-04-08T06:17:12.445Z,18.83
2023-04-08T06:19:40.473Z,13.17
2023-04-08T06:22:08.591Z,19.20
2023-04-08T06:24:37.776Z,20.53
2023-04-08T06:27:07.911Z,16.77
2023-04-08T06:29:39.697Z,16.30
2023-04-08T06:32:09.102Z,14.60
2023-04-08T06:34:40.399Z,19.90
2023-04-08T06:37:12.829Z,15.30
2023-04-08T06:39:51.101Z,21.30
2023-04-08T06:42:23.239Z,13.13
2023-04-08T06:44:54.312Z,14.83
2023-04-08T06:47:41.011Z,15.53
2023-04-08T06:50:09.681Z,17.43
2023-04-08T06:52:37.793Z,15.30
2023-04-08T06:55:07.431Z,15.33
2023-04-08T06:57:39.856Z,17.70
2023-04-08T07:00:09.379Z,14.10
2023-04-08T07:02:38.668Z,14.80
2023-04-08T07:05:08.016Z,20.13
2023-04-08T07:07:38.833Z,14.90
2023-04-08T07:10:10.904Z,11.83
2023-04-08T07:12:44.156Z,10.90
2023-04-08T07:15:18.675Z,16.20
2023-04-08T07:17:46.875Z,12.90
2023-04-08T07:20:18.994Z,15.20
2023-04-08T07:22:47.446Z,13.00
2023-04-08T07:25:15.465Z,16.30
2023-04-08T07:27:45.264Z,13.37
2023-04-08T07:30:15.553Z,13.97
2023-04-08T07:32:48.368Z,15.63
2023-04-08T07:35:24.463Z,20.97
2023-04-08T07:37:57.816Z,13.53
2023-04-08T07:40:26.073Z,11.93
2023-04-08T07:42:57.615Z,14.37
2023-04-08T07:45:29.922Z,13.80
2023-04-08T07:47:57.838Z,12.90
2023-04-08T07:50:30.501Z,14.83
2023-04-08T07:53:00.086Z,21.17
2023-04-08T07:55:35.136Z,17.10
2023-04-08T07:58:06.520Z,20.10
2023-04-08T08:00:35.960Z,15.43
2023-04-08T08:03:06.471Z,16.40
2023-04-08T08:05:39.877Z,16.67
2023-04-08T08:08:08.568Z,14.90
2023-04-08T08:10:38.524Z,13.00
2023-04-08T08:13:08.431Z,10.47
2023-04-08T08:15:36.325Z,15.50
2023-04-08T08:18:04.617Z,18.20
2023-04-08T08:20:36.748Z,15.60
2023-04-08T08:23:06.347Z,17.50
2023-04-08T08:25:34.338Z,14.57
2023-04-08T08:28:02.051Z,15.30
2023-04-08T08:33:05.369Z,16.70
2023-04-08T08:35:35.106Z,12.90
2023-04-08T08:38:03.170Z,16.27
2023-04-08T08:40:34.326Z,16.97
2023-04-08T08:43:05.823Z,16.60
2023-04-08T08:45:35.800Z,13.50
2023-04-08T08:48:04.178Z,17.60
2023-04-08T08:50:33.821Z,20.30
2023-04-08T08:53:01.977Z,21.30
2023-04-08T08:55:59.999Z,13.53
2023-04-08T08:58:28.157Z,16.50
2023-04-08T09:01:03.870Z,17.97
2023-04-08T09:03:39.596Z,17.17
2023-04-08T09:06:07.962Z,20.77
2023-04-08T09:08:39.359Z,15.50
2023-04-08T09:11:16.799Z,15.77
2023-04-08T09:13:45.085Z,19.07
2023-04-08T09:16:18.208Z,16.27
2023-04-08T09:18:47.499Z,19.53
2023-04-08T09:21:18.151Z,21.30
2023-04-08T09:23:51.909Z,18.07
2023-04-08T09:26:24.327Z,17.00
2023-04-08T09:29:14.345Z,17.13
2023-04-08T09:31:53.512Z,19.30
2023-04-08T09:34:25.886Z,19.27
2023-04-08T09:37:06.219Z,18.30
2023-04-08T09:39:34.181Z,18.40
2023-04-08T09:42:11.659Z,17.60
2023-04-08T09:44:42.734Z,21.20
2023-04-08T09:47:20.803Z,18.90
2023-04-08T09:49:52.846Z,21.00
2023-04-08T09:52:23.403Z,20.87
2023-04-08T09:54:55.078Z,15.73
2023-04-08T09:57:30.390Z,19.40
2023-04-08T10:00:03.027Z,19.40
2023-04-08T10:02:46.232Z,19.30
2023-04-08T10:05:17.074Z,21.10
2023-04-08T10:07:47.390Z,17.93
2023-04-08T10:10:16.009Z,23.00
2023-04-08T10:12:44.011Z,15.60
2023-04-08T10:15:28.060Z,17.57
2023-04-08T10:18:44.417Z,19.43
2023-04-08T10:21:35.048Z,17.17
2023-04-08T10:24:07.767Z,17.43
2023-04-08T10:26:50.098Z,20.10
2023-04-08T10:29:36.645Z,22.27
2023-04-08T10:32:04.669Z,20.90
2023-04-08T10:34:33.991Z,20.37
2023-04-08T10:37:02.733Z,19.80
2023-04-08T10:39:31.916Z,21.10
2023-04-08T10:42:02.903Z,16.33
2023-04-08T10:44:33.640Z,20.43
2023-04-08T10:47:01.900Z,15.40
2023-04-08T10:49:37.961Z,17.47
2023-04-08T10:52:24.759Z,17.30
2023-04-08T10:54:55.391Z,19.83
2023-04-08T10:57:30.477Z,21.10
2023-04-08T11:00:01.242Z,18.27
2023-04-08T11:02:34.364Z,18.60
2023-04-08T11:05:08.451Z,16.83
2023-04-08T11:07:42.924Z,23.10
2023-04-08T11:10:14.492Z,16.23
2023-04-08T11:12:44.467Z,21.03
2023-04-08T11:15:15.167Z,16.47
2023-04-08T11:17:47.653Z,19.07
2023-04-08T11:20:17.578Z,19.20
2023-04-08T11:22:48.074Z,17.70
2023-04-08T11:25:16.015Z,18.80
2023-04-08T11:27:45.703Z,17.50
2023-04-08T11:30:16.754Z,17.10
2023-04-08T11:32:47.287Z,22.03
2023-04-08T11:35:18.259Z,17.67
2023-04-08T11:38:10.109Z,18.93
2023-04-08T11:40:38.444Z,17.00
2023-04-08T11:43:10.939Z,15.03
2023-04-08T11:45:46.053Z,17.77
2023-04-08T11:48:15.598Z,16.83
2023-04-08T11:50:47.593Z,16.30
2023-04-08T11:53:27.034Z,17.07
2023-04-08T11:56:05.437Z,18.87
2023-04-08T11:58:37.580Z,18.27
2023-04-08T12:01:07.602Z,16.40
2023-04-08T12:03:42.417Z,20.67
2023-04-08T12:06:17.340Z,16.73
2023-04-08T12:08:45.371Z,17.33
2023-04-08T12:11:19.862Z,20.73
2023-04-08T12:13:49.886Z,20.07
2023-04-08T12:16:20.316Z,18.90
2023-04-08T12:18:48.446Z,18.03
2023-04-08T12:21:18.134Z,18.13
2023-04-08T12:23:48.821Z,20.57
2023-04-08T12:26:17.363Z,15.40
2023-04-08T12:28:47.101Z,17.40
2023-04-08T12:31:20.432Z,21.53
2023-04-08T12:33:48.647Z,20.90
2023-04-08T12:36:18.516Z,19.90
2023-04-08T12:38:49.370Z,19.20
2023-04-08T12:41:18.062Z,18.93
2023-04-08T12:43:46.993Z,17.10
2023-04-08T12:46:14.930Z,17.47
2023-04-08T12:48:47.557Z,17.33
2023-04-08T12:51:30.345Z,17.87
2023-04-08T12:53:59.318Z,19.60
2023-04-08T12:56:29.717Z,19.70
2023-04-08T12:59:01.124Z,18.47
2023-04-08T13:01:32.625Z,22.30
2023-04-08T13:04:03.064Z,24.47
2023-04-08T13:06:38.777Z,20.50
2023-04-08T13:09:08.024Z,19.80
2023-04-08T13:11:36.871Z,20.70
2023-04-08T13:14:04.991Z,18.20
2023-04-08T13:16:34.936Z,15.87
2023-04-08T13:19:03.014Z,18.43
2023-04-08T13:21:34.220Z,18.77
2023-04-08T13:24:04.609Z,16.40
2023-04-08T13:26:32.832Z,26.70
2023-04-08T13:29:10.257Z,19.20
2023-04-08T13:31:38.977Z,20.43
2023-04-08T13:34:09.210Z,21.83
2023-04-08T13:36:41.354Z,19.37
2023-04-08T13:39:09.403Z,15.23
2023-04-08T13:41:37.527Z,18.10
2023-04-08T13:44:05.754Z,18.77
2023-04-08T13:46:36.370Z,17.87
2023-04-08T13:49:04.644Z,17.70
2023-04-08T13:51:35.350Z,14.77
2023-04-08T13:54:08.287Z,19.27
2023-04-08T13:56:36.379Z,21.37
2023-04-08T13:59:07.367Z,17.57
2023-04-08T14:01:38.343Z,17.63
2023-04-08T14:04:12.103Z,18.53
2023-04-08T14:06:40.344Z,20.73
2023-04-08T14:09:10.708Z,20.23
2023-04-08T14:11:40.810Z,16.97
2023-04-08T14:14:11.305Z,17.70
2023-04-08T14:16:41.910Z,16.23
2023-04-08T14:19:33.247Z,20.83
2023-04-08T14:22:02.665Z,18.10
2023-04-08T14:24:32.977Z,16.27
2023-04-08T14:27:04.801Z,19.40
2023-04-08T14:29:34.274Z,19.20
2023-04-08T14:32:03.615Z,16.03
2023-04-08T14:34:31.716Z,15.90
2023-04-08T14:37:01.382Z,18.50
2023-04-08T14:39:45.058Z,17.90
2023-04-08T14:42:13.138Z,18.27
2023-04-08T14:44:41.420Z,13.80
2023-04-08T14:47:12.526Z,14.43
2023-04-08T14:49:40.705Z,20.73
2023-04-08T14:52:08.620Z,18.10
2023-04-08T14:54:36.454Z,21.00
2023-04-08T14:57:07.038Z,19.57
2023-04-08T14:59:35.268Z,14.37
2023-04-08T15:02:03.493Z,14.90
2023-04-08T15:04:32.143Z,17.37
2023-04-08T15:07:01.634Z,21.23
2023-04-08T15:09:36.165Z,19.03
2023-04-08T15:12:06.300Z,17.70
2023-04-08T15:14:34.270Z,19.17
2023-04-08T15:17:05.244Z,20.43
2023-04-08T15:19:33.249Z,15.23
2023-04-08T15:22:01.248Z,14.43
2023-04-08T15:24:36.686Z,17.87
2023-04-08T15:27:06.067Z,14.47
2023-04-08T15:29:34.132Z,17.03
2023-04-08T15:32:04.955Z,17.90
2023-04-08T15:34:33.148Z,15.97
2023-04-08T15:37:02.295Z,13.47
2023-04-08T15:39:30.800Z,15.37
2023-04-08T15:42:05.436Z,19.00
2023-04-08T15:44:37.693Z,13.60
2023-04-08T15:47:08.540Z,14.97
2023-04-08T15:49:46.422Z,17.67
2023-04-08T15:52:15.942Z,15.53
2023-04-08T15:54:46.519Z,13.97
2023-04-08T15:57:16.273Z,12.37
2023-04-08T15:59:47.936Z,15.53
2023-04-08T16:02:15.854Z,12.83
2023-04-08T16:04:47.272Z,12.43
2023-04-08T16:07:19.335Z,11.83
2023-04-08T16:09:47.128Z,11.73
2023-04-08T16:12:19.979Z,7.57
2023-04-08T16:14:49.458Z,12.87
2023-04-08T16:17:20.252Z,9.13
2023-04-08T16:19:51.124Z,9.47
2023-04-08T16:25:19.516Z,9.97
2023-04-08T16:27:51.223Z,7.97
2023-04-08T16:30:22.338Z,9.33
2023-04-08T16:33:00.893Z,8.87
2023-04-08T16:35:31.378Z,8.00
2023-04-08T16:37:59.595Z,11.40
2023-04-08T16:40:27.763Z,7.87
2023-04-08T16:43:00.817Z,8.07
2023-04-08T16:45:31.079Z,9.37
2023-04-08T16:48:04.033Z,9.90
2023-04-08T16:50:33.988Z,12.00
2023-04-08T16:53:03.066Z,13.20
2023-04-08T16:55:33.421Z,12.97
2023-04-08T16:58:01.297Z,12.10
2023-04-08T17:00:33.488Z,9.97
2023-04-08T17:03:04.437Z,12.27
2023-04-08T17:05:35.301Z,12.27
2023-04-08T17:08:08.825Z,9.33
2023-04-08T17:10:48.532Z,8.47
2023-04-08T17:13:19.466Z,8.57
2023-04-08T17:15:50.385Z,10.90
2023-04-08T17:18:21.332Z,9.10
2023-04-08T17:20:49.633Z,10.30
2023-04-08T17:23:17.696Z,10.30
2023-04-08T17:25:46.499Z,10.63
2023-04-08T17:28:18.462Z,8.80
2023-04-08T17:30:46.389Z,10.60
2023-04-08T17:33:19.054Z,11.07
2023-04-08T17:35:47.235Z,12.43
2023-04-08T17:38:15.172Z,11.60
2023-04-08T17:40:44.081Z,9.30
2023-04-08T17:43:13.221Z,11.70
2023-04-08T17:45:41.664Z,8.80
2023-04-08T17:48:12.291Z,10.93
2023-04-08T17:50:41.706Z,10.27
2023-04-08T17:53:11.511Z,9.70
2023-04-08T17:55:41.759Z,11.97
2023-04-08T17:58:09.621Z,10.33
2023-04-08T18:00:41.041Z,11.60
2023-04-08T18:03:09.553Z,10.80
2023-04-08T18:05:43.051Z,10.57
2023-04-08T18:08:12.892Z,14.17
2023-04-08T18:10:43.115Z,9.07
2023-04-08T18:13:12.133Z,10.13
2023-04-08T18:15:43.927Z,12.23
2023-04-08T18:18:11.881Z,8.33
2023-04-08T18:20:41.872Z,10.90
2023-04-08T18:23:10.397Z,10.40
2023-04-08T18:25:41.433Z,11.27
2023-04-08T18:28:09.488Z,10.50
2023-04-08T18:30:55.035Z,9.17
2023-04-08T18:33:24.125Z,9.93
2023-04-08T18:35:52.814Z,11.27
2023-04-08T18:38:21.232Z,12.93
2023-04-08T18:40:54.078Z,10.33
2023-04-08T18:43:26.692Z,12.67
2023-04-08T18:45:55.568Z,8.23
2023-04-08T18:48:24.377Z,13.03
2023-04-08T18:50:52.482Z,10.03
2023-04-08T18:53:20.886Z,10.73
2023-04-08T18:55:51.179Z,11.63
2023-04-08T18:58:22.821Z,11.70
2023-04-08T19:00:51.022Z,11.73
2023-04-08T19:03:21.617Z,13.97
2023-04-08T19:05:52.000Z,12.27
2023-04-08T19:08:30.996Z,12.70
2023-04-08T19:11:00.670Z,13.53
2023-04-08T19:13:29.635Z,14.83
2023-04-08T19:16:00.524Z,11.60
2023-04-08T19:18:33.478Z,9.77
2023-04-08T19:21:04.826Z,10.97
2023-04-08T19:23:44.303Z,13.53
2023-04-08T19:26:17.686Z,13.97
2023-04-08T19:28:47.652Z,12.57
2023-04-08T19:31:17.018Z,12.67
2023-04-08T19:33:47.800Z,14.90
2023-04-08T19:36:18.892Z,12.73
2023-04-08T19:38:53.825Z,11.20
2023-04-08T19:41:23.887Z,13.20
2023-04-08T19:43:53.390Z,12.60
2023-04-08T19:46:22.226Z,15.00
2023-04-08T19:48:53.120Z,20.40
2023-04-08T19:51:38.120Z,14.93
2023-04-08T19:54:06.350Z,15.50
2023-04-08T19:56:38.072Z,13.57
2023-04-08T19:59:08.148Z,14.43
2023-04-08T20:01:36.481Z,12.27
2023-04-08T20:04:05.720Z,13.90
2023-04-08T20:06:33.610Z,12.37
2023-04-08T20:09:08.706Z,15.53
2023-04-08T20:11:38.396Z,12.40
2023-04-08T20:14:06.543Z,10.40
2023-04-08T20:16:36.503Z,13.40
2023-04-08T20:19:04.602Z,12.33
2023-04-08T20:21:32.702Z,18.13
2023-04-08T20:24:00.946Z,9.60
2023-04-08T20:26:29.088Z,16.43
2023-04-08T20:29:01.350Z,14.80
2023-04-08T20:31:32.381Z,14.23
2023-04-08T20:34:00.517Z,15.77
2023-04-08T20:36:29.638Z,14.30
2023-04-08T20:39:00.382Z,17.10
2023-04-08T20:41:33.271Z,15.33
2023-04-08T20:44:06.307Z,14.00
2023-04-08T20:46:35.339Z,16.10
2023-04-08T20:49:03.819Z,20.60
2023-04-08T20:51:34.925Z,23.50
2023-04-08T20:54:07.848Z,18.50
2023-04-08T20:56:35.885Z,20.47
2023-04-08T20:59:08.468Z,20.00
2023-04-08T21:01:41.562Z,21.53
2023-04-08T21:04:10.029Z,20.10
2023-04-08T21:06:43.997Z,15.83
2023-04-08T21:09:12.320Z,15.23
2023-04-08T21:11:50.322Z,16.60
2023-04-08T21:14:25.770Z,17.20
2023-04-08T21:16:56.980Z,18.73
2023-04-08T21:19:27.583Z,16.60
2023-04-08T21:21:58.423Z,16.50
2023-04-08T21:24:32.327Z,20.27
2023-04-08T21:27:03.315Z,15.97
2023-04-08T21:29:33.679Z,20.60
2023-04-08T21:32:01.737Z,13.67
2023-04-08T21:34:34.433Z,15.43
2023-04-08T21:37:02.452Z,14.97
2023-04-08T21:39:31.686Z,15.20
2023-04-08T21:42:02.144Z,14.67
2023-04-08T21:44:30.529Z,16.90
2023-04-08T21:47:04.937Z,12.80
2023-04-08T21:49:34.983Z,18.67
2023-04-08T21:52:06.109Z,16.00
2023-04-08T21:54:36.542Z,16.83
2023-04-08T21:57:08.019Z,14.03
2023-04-08T22:02:29.996Z,15.10
2023-04-08T22:04:58.456Z,14.30
2023-04-08T22:07:26.529Z,14.83
2023-04-08T22:09:55.568Z,14.83
2023-04-08T22:12:27.260Z,15.40
2023-04-08T22:15:00.409Z,17.53
2023-04-08T22:17:30.607Z,17.20
2023-04-08T22:20:01.488Z,12.63
2023-04-08T22:22:29.594Z,14.30
2023-04-08T22:24:57.702Z,15.90
2023-04-08T22:27:29.492Z,14.17
2023-04-08T22:29:57.267Z,16.17
2023-04-08T22:32:25.586Z,19.53
2023-04-08T22:34:56.944Z,17.77
2023-04-08T22:37:27.994Z,13.43
2023-04-08T22:40:00.211Z,16.50
2023-04-08T22:42:28.195Z,17.10
2023-04-08T22:44:56.293Z,15.47
2023-04-08T22:47:30.022Z,16.90
2023-04-08T22:50:02.257Z,19.20
2023-04-08T22:52:34.680Z,18.50
2023-04-08T22:55:02.720Z,24.93
2023-04-08T22:57:33.189Z,22.17
2023-04-08T23:00:03.890Z,22.50
2023-04-08T23:02:32.443Z,22.20
2023-04-08T23:05:03.564Z,21.27
2023-04-08T23:07:35.245Z,24.20
2023-04-08T23:10:03.556Z,26.33
2023-04-08T23:12:31.714Z,19.97
2023-04-08T23:14:59.807Z,23.13
2023-04-08T23:17:30.253Z,21.07
2023-04-08T23:20:17.238Z,21.07
2023-04-08T23:22:45.269Z,20.73
2023-04-08T23:25:13.253Z,16.47
2023-04-08T23:27:41.368Z,18.60
2023-04-08T23:30:10.764Z,16.80
2023-04-08T23:32:38.653Z,22.37
2023-04-08T23:35:09.630Z,19.13
2023-04-08T23:37:38.955Z,18.40
2023-04-08T23:40:08.465Z,18.90
2023-04-08T23:42:38.163Z,21.20
2023-04-08T23:45:10.250Z,19.33
2023-04-08T23:47:39.568Z,18.00
2023-04-08T23:50:12.477Z,17.57
2023-04-08T23:52:46.970Z,17.57
2023-04-08T23:55:20.219Z,18.40
2023-04-08T23:57:49.329Z,18.40
